createdAt,value
2022-11-28T00:02:09.490Z,24.77
2022-11-28T00:04:55.206Z,27.20
2022-11-28T00:07:40.600Z,28.58
2022-11-28T00:10:26.262Z,26.80
2022-11-28T00:13:12.248Z,31.20
2022-11-28T00:15:59.320Z,31.80
2022-11-28T00:18:45.049Z,29.60
2022-11-28T00:21:31.526Z,30.90
2022-11-28T00:24:16.734Z,30.33
2022-11-28T00:27:02.406Z,31.08
2022-11-28T00:29:47.671Z,30.35
2022-11-28T00:32:34.806Z,32.30
2022-11-28T00:35:21.056Z,29.77
2022-11-28T00:38:06.477Z,31.73
2022-11-28T00:41:02.849Z,29.35
2022-11-28T00:43:50.293Z,30.60
2022-11-28T00:46:36.121Z,31.90
2022-11-28T00:49:21.410Z,32.53
2022-11-28T00:52:07.177Z,33.30
2022-11-28T00:54:52.515Z,33.45
2022-11-28T00:57:38.305Z,35.75
2022-11-28T01:00:24.012Z,35.53
2022-11-28T01:03:09.280Z,36.53
2022-11-28T01:05:54.615Z,36.78
2022-11-28T01:08:41.143Z,36.83
2022-11-28T01:11:27.690Z,38.30
2022-11-28T01:14:13.757Z,37.50
2022-11-28T01:16:58.977Z,36.83
2022-11-28T01:19:44.459Z,35.80
2022-11-28T01:22:33.026Z,36.72
2022-11-28T01:25:18.570Z,34.45
2022-11-28T01:28:04.407Z,32.92
2022-11-28T01:30:53.420Z,32.55
2022-11-28T01:33:38.538Z,29.50
2022-11-28T01:36:24.927Z,32.05
2022-11-28T01:39:11.135Z,29.98
2022-11-28T01:41:57.127Z,30.20
2022-11-28T01:44:51.222Z,26.83
2022-11-28T01:47:36.512Z,28.25
2022-11-28T01:50:23.105Z,27.73
2022-11-28T01:53:10.401Z,27.00
2022-11-28T01:56:05.114Z,26.90
2022-11-28T01:58:54.809Z,28.35
2022-11-28T02:01:40.520Z,26.35
2022-11-28T02:04:27.957Z,24.50
2022-11-28T02:07:16.622Z,24.33
2022-11-28T02:10:05.889Z,23.90
2022-11-28T02:13:21.563Z,22.75
2022-11-28T02:16:28.374Z,21.48
2022-11-28T02:20:00.379Z,20.23
2022-11-28T02:23:17.863Z,21.08
2022-11-28T02:26:27.973Z,19.58
2022-11-28T02:30:09.358Z,18.85
2022-11-28T02:33:14.480Z,19.33
2022-11-28T02:36:15.278Z,19.45
2022-11-28T02:39:20.896Z,18.73
2022-11-28T02:45:28.135Z,18.10
2022-11-28T02:48:55.003Z,20.08
2022-11-28T02:51:52.993Z,21.08
2022-11-28T02:54:39.661Z,22.73
2022-11-28T02:57:51.360Z,24.10
2022-11-28T03:00:38.804Z,22.88
2022-11-28T03:03:47.499Z,23.45
2022-11-28T03:06:52.280Z,21.45
2022-11-28T03:10:06.921Z,22.92
2022-11-28T03:13:14.226Z,22.23
2022-11-28T03:16:21.702Z,23.13
2022-11-28T03:19:27.568Z,24.70
2022-11-28T03:22:21.908Z,24.98
2022-11-28T03:25:33.915Z,25.57
2022-11-28T03:28:31.384Z,25.98
2022-11-28T03:31:31.587Z,25.13
2022-11-28T03:34:20.870Z,23.90
2022-11-28T03:37:14.522Z,24.45
2022-11-28T03:40:04.214Z,23.90
2022-11-28T03:43:17.007Z,24.73
2022-11-28T03:46:08.621Z,23.05
2022-11-28T03:48:58.913Z,22.80
2022-11-28T03:51:57.223Z,23.20
2022-11-28T03:54:58.991Z,23.55
2022-11-28T03:58:10.750Z,24.10
2022-11-28T04:01:21.400Z,25.17
2022-11-28T04:04:30.713Z,24.63
2022-11-28T04:07:27.179Z,25.90
2022-11-28T04:10:24.460Z,26.23
2022-11-28T04:13:51.456Z,25.02
2022-11-28T04:16:53.397Z,25.70
2022-11-28T04:19:48.686Z,25.17
2022-11-28T04:22:50.821Z,26.37
2022-11-28T04:25:40.249Z,26.25
2022-11-28T04:28:29.924Z,25.60
2022-11-28T04:31:17.957Z,25.63
2022-11-28T04:34:08.419Z,26.15
2022-11-28T04:36:55.222Z,27.13
2022-11-28T04:39:45.274Z,27.40
2022-11-28T04:42:36.685Z,29.05
2022-11-28T04:45:37.783Z,29.10
2022-11-28T04:48:31.199Z,28.85
2022-11-28T04:51:21.617Z,29.17
2022-11-28T04:54:12.556Z,29.10
2022-11-28T04:57:10.847Z,28.95
2022-11-28T04:59:57.370Z,29.95
2022-11-28T05:02:44.703Z,29.90
2022-11-28T05:05:30.390Z,29.48
2022-11-28T05:08:17.200Z,30.52
2022-11-28T05:11:02.270Z,30.98
2022-11-28T05:13:47.903Z,29.50
2022-11-28T05:16:33.370Z,29.45
2022-11-28T05:19:19.084Z,30.65
2022-11-28T05:22:07.666Z,31.48
2022-11-28T05:24:53.377Z,31.33
2022-11-28T05:27:38.949Z,32.47
2022-11-28T05:30:27.055Z,32.92
2022-11-28T05:33:12.289Z,32.10
2022-11-28T05:36:02.550Z,35.00
2022-11-28T05:38:48.447Z,34.88
2022-11-28T05:41:34.226Z,35.30
2022-11-28T05:44:26.729Z,36.45
2022-11-28T05:47:12.596Z,36.75
2022-11-28T05:49:58.179Z,36.30
2022-11-28T05:52:43.559Z,36.50
2022-11-28T05:55:28.994Z,36.90
2022-11-28T05:58:14.720Z,40.35
2022-11-28T06:01:00.213Z,39.08
2022-11-28T06:03:46.376Z,38.05
2022-11-28T06:06:34.635Z,40.38
2022-11-28T06:09:25.831Z,37.78
2022-11-28T06:12:11.527Z,38.85
2022-11-28T06:14:59.715Z,41.33
2022-11-28T06:17:45.059Z,43.40
2022-11-28T06:20:30.636Z,43.35
2022-11-28T06:23:18.906Z,43.10
2022-11-28T06:26:09.937Z,44.90
2022-11-28T06:28:58.353Z,42.65
2022-11-28T06:31:43.697Z,45.53
2022-11-28T06:34:29.474Z,46.58
2022-11-28T06:37:20.653Z,49.03
2022-11-28T06:40:06.437Z,47.28
2022-11-28T06:42:52.138Z,47.85
2022-11-28T06:45:37.363Z,48.53
2022-11-28T06:48:23.653Z,48.55
2022-11-28T06:51:09.138Z,49.83
2022-11-28T06:53:54.837Z,51.72
2022-11-28T06:56:41.480Z,54.05
2022-11-28T06:59:26.849Z,53.30
2022-11-28T07:02:12.355Z,51.90
2022-11-28T07:04:57.674Z,54.13
2022-11-28T07:07:53.583Z,52.15
2022-11-28T07:10:40.152Z,53.20
2022-11-28T07:13:25.772Z,53.78
2022-11-28T07:16:18.414Z,54.47
2022-11-28T07:19:04.538Z,55.97
2022-11-28T07:21:53.334Z,58.58
2022-11-28T07:24:38.647Z,58.00
2022-11-28T07:27:24.178Z,59.72
2022-11-28T07:30:10.423Z,55.95
2022-11-28T07:32:55.877Z,58.97
2022-11-28T07:35:43.971Z,59.72
2022-11-28T07:38:32.122Z,56.50
2022-11-28T07:41:19.688Z,57.38
2022-11-28T07:44:07.866Z,61.92
2022-11-28T07:46:53.645Z,59.05
2022-11-28T07:49:44.966Z,59.85
2022-11-28T07:52:30.727Z,58.17
2022-11-28T07:55:16.430Z,60.33
2022-11-28T07:58:02.469Z,62.00
2022-11-28T08:00:54.292Z,62.58
2022-11-28T08:03:39.669Z,61.33
2022-11-28T08:06:28.757Z,63.92
2022-11-28T08:09:15.494Z,61.30
2022-11-28T08:12:00.739Z,60.63
2022-11-28T08:14:46.253Z,64.18
2022-11-28T08:17:33.279Z,63.80
2022-11-28T08:20:18.875Z,63.92
2022-11-28T08:23:04.475Z,67.63
2022-11-28T08:25:49.750Z,65.30
2022-11-28T08:28:37.538Z,65.03
2022-11-28T08:31:26.265Z,66.60
2022-11-28T08:34:14.238Z,71.00
2022-11-28T08:37:02.273Z,69.13
2022-11-28T08:39:47.454Z,70.45
2022-11-28T08:42:36.124Z,70.05
2022-11-28T08:45:21.534Z,71.05
2022-11-28T08:48:06.804Z,73.50
2022-11-28T08:50:52.229Z,73.78
2022-11-28T08:53:37.974Z,73.78
2022-11-28T08:56:23.719Z,69.25
2022-11-28T08:59:09.924Z,67.03
2022-11-28T09:01:55.436Z,66.00
2022-11-28T09:04:40.931Z,75.20
2022-11-28T09:07:26.156Z,70.60
2022-11-28T09:10:11.994Z,70.80
2022-11-28T09:12:57.324Z,68.88
2022-11-28T09:15:51.279Z,64.55
2022-11-28T09:21:27.227Z,59.42
2022-11-28T09:24:14.090Z,59.72
2022-11-28T09:26:59.715Z,60.70
2022-11-28T09:29:45.343Z,56.22
2022-11-28T09:32:30.794Z,56.83
2022-11-28T09:35:17.872Z,53.53
2022-11-28T09:38:03.449Z,52.45
2022-11-28T09:40:49.559Z,50.70
2022-11-28T09:43:54.560Z,46.33
2022-11-28T09:46:41.914Z,46.10
2022-11-28T09:49:53.224Z,45.17
2022-11-28T09:52:45.833Z,44.60
2022-11-28T09:55:41.557Z,43.70
2022-11-28T09:58:36.777Z,42.22
2022-11-28T10:01:38.337Z,40.30
2022-11-28T10:04:49.473Z,37.70
2022-11-28T10:07:55.098Z,39.78
2022-11-28T10:11:00.990Z,36.13
2022-11-28T10:14:09.961Z,36.72
2022-11-28T10:17:02.658Z,37.42
2022-11-28T10:20:04.253Z,37.35
2022-11-28T10:22:57.894Z,37.08
2022-11-28T10:25:50.895Z,38.38
2022-11-28T10:28:50.162Z,35.17
2022-11-28T10:31:40.923Z,36.65
2022-11-28T10:34:34.550Z,35.55
2022-11-28T10:37:25.581Z,36.05
2022-11-28T10:40:24.788Z,37.00
2022-11-28T10:43:44.067Z,36.05
2022-11-28T10:46:41.474Z,34.33
2022-11-28T10:49:41.924Z,35.20
2022-11-28T10:52:51.759Z,36.38
2022-11-28T10:56:08.521Z,33.17
2022-11-28T10:59:08.071Z,32.03
2022-11-28T11:01:56.674Z,34.38
2022-11-28T11:04:42.323Z,34.47
2022-11-28T11:07:32.730Z,34.47
2022-11-28T11:10:30.577Z,35.42
2022-11-28T11:13:24.938Z,37.33
2022-11-28T11:16:11.661Z,37.08
2022-11-28T11:19:00.427Z,34.40
2022-11-28T11:22:02.577Z,38.00
2022-11-28T11:25:13.036Z,36.33
2022-11-28T11:28:02.183Z,38.03
2022-11-28T11:30:47.842Z,38.25
2022-11-28T11:33:40.321Z,38.17
2022-11-28T11:36:29.078Z,39.85
2022-11-28T11:39:15.142Z,38.92
2022-11-28T11:42:00.741Z,39.58
2022-11-28T11:44:46.545Z,37.95
2022-11-28T11:47:43.513Z,38.80
2022-11-28T11:50:37.392Z,37.95
2022-11-28T11:53:22.765Z,39.05
2022-11-28T11:56:09.786Z,37.58
2022-11-28T11:58:58.105Z,37.70
2022-11-28T12:01:46.538Z,36.22
2022-11-28T12:04:46.476Z,38.30
2022-11-28T12:08:03.678Z,38.95
2022-11-28T12:10:55.757Z,37.38
2022-11-28T12:13:41.258Z,35.08
2022-11-28T12:16:38.186Z,34.05
2022-11-28T12:19:54.398Z,35.40
2022-11-28T12:23:18.149Z,34.40
2022-11-28T12:26:31.018Z,35.40
2022-11-28T12:29:46.557Z,35.92
2022-11-28T12:32:54.026Z,36.03
2022-11-28T12:35:41.250Z,35.28
2022-11-28T12:38:48.212Z,35.58
2022-11-28T12:42:04.151Z,34.05
2022-11-28T12:44:54.079Z,34.25
2022-11-28T12:48:21.826Z,33.28
2022-11-28T12:51:52.995Z,31.85
2022-11-28T12:55:10.720Z,33.22
2022-11-28T12:58:27.374Z,35.17
2022-11-28T13:01:37.249Z,32.30
2022-11-28T13:04:52.739Z,35.15
2022-11-28T13:07:47.178Z,33.63
2022-11-28T13:11:20.504Z,34.90
2022-11-28T13:14:31.258Z,36.42
2022-11-28T13:17:33.145Z,34.58
2022-11-28T13:20:42.959Z,35.00
2022-11-28T13:23:50.280Z,34.90
2022-11-28T13:26:43.624Z,34.72
2022-11-28T13:29:28.896Z,34.03
2022-11-28T13:32:17.443Z,31.45
2022-11-28T13:35:04.395Z,32.33
2022-11-28T13:41:43.097Z,33.30
2022-11-28T13:44:35.212Z,32.47
2022-11-28T13:47:23.597Z,32.42
2022-11-28T13:50:28.145Z,32.03
2022-11-28T13:53:24.379Z,33.35
2022-11-28T13:56:28.426Z,32.60
2022-11-28T13:59:21.802Z,31.60
2022-11-28T14:02:25.446Z,30.27
2022-11-28T14:05:33.735Z,30.13
2022-11-28T14:08:34.431Z,32.10
2022-11-28T14:11:38.471Z,31.40
2022-11-28T14:14:55.951Z,28.88
2022-11-28T14:18:39.015Z,29.85
2022-11-28T14:21:37.582Z,31.38
2022-11-28T14:24:44.581Z,30.17
2022-11-28T14:27:34.083Z,31.00
2022-11-28T14:30:32.056Z,31.77
2022-11-28T14:33:20.605Z,30.60
2022-11-28T14:36:37.681Z,30.52
2022-11-28T14:39:34.728Z,29.42
2022-11-28T14:42:51.799Z,30.40
2022-11-28T14:45:43.673Z,30.65
2022-11-28T14:48:30.699Z,33.17
2022-11-28T14:51:17.180Z,32.42
2022-11-28T14:54:02.545Z,33.10
2022-11-28T14:56:52.924Z,32.42
2022-11-28T14:59:41.214Z,30.88
2022-11-28T15:02:34.066Z,32.20
2022-11-28T15:05:36.501Z,32.55
2022-11-28T15:08:47.562Z,31.88
2022-11-28T15:11:58.476Z,32.95
2022-11-28T15:14:50.535Z,36.22
2022-11-28T15:17:36.123Z,38.38
2022-11-28T15:20:42.497Z,39.88
2022-11-28T15:23:33.654Z,36.70
2022-11-28T15:26:27.857Z,36.58
2022-11-28T15:29:22.354Z,36.08
2022-11-28T15:32:07.549Z,34.10
2022-11-28T15:35:20.830Z,36.70
2022-11-28T15:38:06.245Z,37.70
2022-11-28T15:40:53.425Z,35.63
2022-11-28T15:43:43.887Z,34.92
2022-11-28T15:46:34.399Z,35.25
2022-11-28T15:49:32.811Z,37.92
2022-11-28T15:52:18.691Z,38.33
2022-11-28T15:55:17.249Z,38.25
2022-11-28T15:58:25.441Z,38.38
2022-11-28T16:01:25.533Z,36.22
2022-11-28T16:04:15.109Z,43.88
2022-11-28T16:07:02.079Z,41.65
2022-11-28T16:10:01.361Z,39.28
2022-11-28T16:12:50.022Z,38.30
2022-11-28T16:15:35.758Z,39.65
2022-11-28T16:18:21.475Z,38.63
2022-11-28T16:21:12.870Z,38.55
2022-11-28T16:24:00.607Z,37.65
2022-11-28T16:26:55.706Z,38.95
2022-11-28T16:29:46.350Z,43.20
2022-11-28T16:32:41.083Z,43.80
2022-11-28T16:35:33.830Z,41.03
2022-11-28T16:38:23.770Z,35.45
2022-11-28T16:41:18.066Z,40.22
2022-11-28T16:44:14.515Z,36.92
2022-11-28T16:47:00.536Z,39.38
2022-11-28T16:50:16.244Z,41.33
2022-11-28T16:53:02.994Z,39.60
2022-11-28T16:55:48.609Z,41.85
2022-11-28T16:58:33.952Z,42.15
2022-11-28T17:01:21.437Z,40.88
2022-11-28T17:04:07.598Z,42.85
2022-11-28T17:06:56.070Z,44.20
2022-11-28T17:09:52.291Z,41.95
2022-11-28T17:12:39.103Z,44.30
2022-11-28T17:15:24.369Z,44.92
2022-11-28T17:18:09.950Z,47.72
2022-11-28T17:20:55.419Z,49.03
2022-11-28T17:23:44.630Z,47.80
2022-11-28T17:26:30.030Z,48.80
2022-11-28T17:29:16.486Z,50.28
2022-11-28T17:32:02.339Z,51.00
2022-11-28T17:34:47.566Z,49.03
2022-11-28T17:37:35.370Z,46.25
2022-11-28T17:40:36.923Z,50.38
2022-11-28T17:43:22.971Z,51.35
2022-11-28T17:46:08.564Z,53.72
2022-11-28T17:48:56.564Z,53.95
2022-11-28T17:51:42.705Z,53.67
2022-11-28T17:54:28.516Z,57.38
2022-11-28T17:57:14.159Z,61.63
2022-11-28T18:00:00.975Z,61.55
2022-11-28T18:02:46.233Z,67.43
2022-11-28T18:05:34.371Z,67.35
2022-11-28T18:08:22.268Z,69.00
2022-11-28T18:11:10.178Z,70.57
2022-11-28T18:13:58.578Z,71.32
2022-11-28T18:16:44.704Z,69.88
2022-11-28T18:19:31.254Z,71.72
2022-11-28T18:22:20.440Z,71.90
2022-11-28T18:25:08.359Z,73.88
2022-11-28T18:27:53.562Z,75.63
2022-11-28T18:30:47.120Z,73.28
2022-11-28T18:33:36.625Z,74.40
2022-11-28T18:36:24.598Z,77.68
2022-11-28T18:39:13.596Z,76.35
2022-11-28T18:42:00.249Z,76.90
2022-11-28T18:44:48.669Z,76.18
2022-11-28T18:47:35.959Z,82.03
2022-11-28T18:50:21.929Z,77.40
2022-11-28T18:53:09.869Z,74.47
2022-11-28T18:56:03.398Z,76.75
2022-11-28T18:58:51.845Z,75.88
2022-11-28T19:01:38.411Z,78.22
2022-11-28T19:04:23.867Z,75.88
2022-11-28T19:07:09.594Z,75.05
2022-11-28T19:09:55.549Z,79.95
2022-11-28T19:12:41.153Z,79.45
2022-11-28T19:15:26.795Z,77.60
2022-11-28T19:18:12.260Z,81.38
2022-11-28T19:21:00.198Z,79.72
2022-11-28T19:23:48.985Z,76.97
2022-11-28T19:26:35.642Z,77.15
2022-11-28T19:29:21.250Z,79.57
2022-11-28T19:32:07.275Z,77.63
2022-11-28T19:34:53.762Z,79.30
2022-11-28T19:37:39.254Z,80.93
2022-11-28T19:40:25.074Z,82.13
2022-11-28T19:43:10.469Z,79.55
2022-11-28T19:45:57.164Z,82.63
2022-11-28T19:48:43.325Z,81.70
2022-11-28T19:51:31.983Z,82.82
2022-11-28T19:54:21.180Z,82.40
2022-11-28T19:57:10.362Z,81.90
2022-11-28T19:59:56.350Z,84.95
2022-11-28T20:02:41.869Z,83.60
2022-11-28T20:05:28.479Z,82.40
2022-11-28T20:08:15.118Z,82.18
2022-11-28T20:11:07.661Z,83.43
2022-11-28T20:14:00.132Z,85.20
2022-11-28T20:16:46.966Z,83.68
2022-11-28T20:19:35.228Z,85.35
2022-11-28T20:22:22.915Z,85.88
2022-11-28T20:25:08.772Z,86.80
2022-11-28T20:27:54.593Z,89.47
2022-11-28T20:30:40.627Z,89.15
2022-11-28T20:33:26.710Z,86.25
2022-11-28T20:36:15.367Z,87.35
2022-11-28T20:39:07.962Z,92.07
2022-11-28T20:41:56.002Z,82.50
2022-11-28T20:44:44.416Z,86.43
2022-11-28T20:47:31.662Z,82.50
2022-11-28T20:50:19.705Z,76.82
2022-11-28T20:53:05.291Z,80.72
2022-11-28T20:55:57.807Z,80.55
2022-11-28T20:58:44.127Z,83.07
2022-11-28T21:01:37.710Z,81.47
2022-11-28T21:04:31.697Z,77.18
2022-11-28T21:07:18.458Z,82.50
2022-11-28T21:10:04.017Z,69.57
2022-11-28T21:12:49.290Z,76.18
2022-11-28T21:15:38.380Z,78.32
2022-11-28T21:18:25.408Z,75.93
2022-11-28T21:21:17.644Z,76.50
2022-11-28T21:24:06.842Z,70.20
2022-11-28T21:26:54.261Z,73.43
2022-11-28T21:29:39.887Z,70.63
2022-11-28T21:32:28.389Z,71.82
2022-11-28T21:35:13.597Z,77.55
2022-11-28T21:37:59.211Z,76.47
2022-11-28T21:40:52.294Z,78.13
2022-11-28T21:43:38.169Z,78.60
2022-11-28T21:46:23.801Z,76.72
2022-11-28T21:49:09.193Z,74.70
2022-11-28T21:51:58.215Z,70.82
2022-11-28T21:54:43.515Z,71.88
2022-11-28T21:57:33.428Z,71.68
2022-11-28T22:00:45.696Z,71.18
2022-11-28T22:03:25.689Z,70.97
2022-11-28T22:06:23.409Z,69.88
2022-11-28T22:09:09.954Z,67.88
2022-11-28T22:11:56.281Z,70.72
2022-11-28T22:14:41.416Z,69.47
2022-11-28T22:17:27.350Z,73.05
2022-11-28T22:20:16.794Z,68.45
2022-11-28T22:23:02.361Z,67.10
2022-11-28T22:25:52.438Z,69.22
2022-11-28T22:28:39.987Z,66.28
2022-11-28T22:31:26.973Z,65.75
2022-11-28T22:34:12.669Z,66.75
2022-11-28T22:36:58.161Z,68.65
2022-11-28T22:39:43.882Z,69.60
2022-11-28T22:42:29.525Z,68.90
2022-11-28T22:45:15.123Z,71.70
2022-11-28T22:48:00.807Z,69.18
2022-11-28T22:50:46.704Z,69.68
2022-11-28T22:53:32.169Z,68.40
2022-11-28T22:56:17.756Z,70.03
2022-11-28T22:59:05.020Z,71.05
2022-11-28T23:01:51.769Z,70.78
2022-11-28T23:04:37.987Z,67.82
2022-11-28T23:07:24.139Z,68.35
2022-11-28T23:10:12.303Z,69.47
2022-11-28T23:12:57.643Z,69.20
2022-11-28T23:15:47.229Z,69.97
2022-11-28T23:18:35.473Z,66.85
2022-11-28T23:21:23.837Z,70.38
2022-11-28T23:24:22.907Z,71.05
2022-11-28T23:27:08.647Z,70.68
2022-11-28T23:29:54.093Z,71.07
2022-11-28T23:32:42.673Z,68.90
2022-11-28T23:35:28.217Z,69.05
2022-11-28T23:38:15.914Z,70.68
2022-11-28T23:41:01.442Z,66.90
2022-11-28T23:43:47.535Z,68.55
2022-11-28T23:46:34.526Z,68.47
2022-11-28T23:49:19.798Z,68.55
2022-11-28T23:52:05.238Z,72.80
2022-11-28T23:54:50.918Z,79.57
2022-11-28T23:57:38.777Z,71.28
